ADDS METAR Data INFO
IDs: Format: Raw Decoded Include TAF

Data at: 0322 UTC 19 Jul 2018

KCNK 190255Z AUTO 13005KT 10SM CLR 23/22 A2990 RMK AO2 SLP110 T02330222 58005
KCNK 190155Z AUTO 14003KT 10SM CLR 26/23 A2990 RMK AO2 SLP111 T02610228
KCNK 190055Z AUTO 00000KT 10SM CLR 28/23 A2991 RMK AO2 SLP111 T02830233
KCNK 182355Z AUTO 13004KT 10SM CLR 29/22 A2991 RMK AO2 SLP114 T02890222 10300 20250 56015
KCNK 182255Z AUTO 12004KT 10SM CLR 29/22 A2993 RMK AO2 SLP118 T02940222
KCNK 182155Z AUTO VRB04KT 10SM FEW044 30/22 A2994 RMK AO2 SLP123 T03000217
KCNK 182055Z AUTO 16005KT 10SM SCT032 SCT039 28/23 A2996 RMK AO2 SLP130 T02830228 58004
KCNK 181955Z AUTO 09005KT 10SM FEW025 28/23 A2996 RMK AO2 SLP132 T02830228 $
KCNK 181855Z AUTO 11007KT 10SM SCT021 27/23 A2997 RMK AO2 SLP135 T02720228 $
KCNK 181844Z AUTO 10006KT 10SM BKN020 BKN027 27/23 A2997 RMK AO2 T02670228 $
KCNK 181814Z AUTO 08010KT 10SM SCT014 26/22 A2994 RMK AO2 T02560222 $
KCNK 181755Z AUTO 10SM OVC014 25/22 A2996 RMK AO2 PRESFR SLP131 T02500222 10250 20206 58026 $
KCNK 181720Z AUTO 10SM OVC013 24/22 A3001 RMK AO2 T02440217 $
KCNK 181655Z AUTO 10SM 24/21 A3002 RMK AO2 SLP154 T02390211 $
KCNK 181650Z AUTO 10SM 24/22 A3003 RMK AO2 $
KCNK 181621Z AUTO 10SM OVC010 23/22 A3004 RMK AO2 T02330217
KCNK 181555Z AUTO 00000KT 10SM OVC008 23/21 A3004 RMK AO2 SLP159 T02330211
KCNK 181523Z AUTO 02007KT 9SM OVC007 23/21 A3004 RMK AO2 T02280211
KCNK 181455Z AUTO 02007KT 8SM OVC006 22/21 A3004 RMK AO2 SLP159 T02220211 55000
KCNK 181423Z AUTO 05006KT 8SM OVC005 22/21 A3004 RMK AO2 T02170211
KCNK 181355Z AUTO 03006KT 5SM BR OVC004 22/21 A3003 RMK AO2 SLP156 T02170211
KCNK 181255Z AUTO 04006KT 6SM BR OVC004 21/21 A3004 RMK AO2 SLP158 T02110206
KCNK 181155Z AUTO 06004KT 6SM BR OVC004 21/21 A3004 RMK AO2 SLP158 70030 T02060206 10206 20200 53003
KCNK 181055Z AUTO 07004KT 6SM BR OVC004 21/20 A3003 RMK AO2 SLP155 T02060200
KCNK 180955Z AUTO 07004KT 5SM BR OVC003 21/21 A3002 RMK AO2 SLP153 T02060206
KCNK 180855Z AUTO 07004KT 5SM BR OVC003 21/21 A3003 RMK AO2 SLP156 T02060206 56008
KCNK 180841Z AUTO 05004KT 5SM BR OVC003 21/21 A3003 RMK AO2 T02060206
KCNK 180755Z AUTO 05003KT 4SM BR BKN006 20/20 A3003 RMK AO2 CIG 001V007 SLP157 T02000200
KCNK 180753Z AUTO 06003KT 4SM BR BKN007 20/20 A3004 RMK AO2 CIG 001V007
KCNK 180720Z AUTO 00000KT 6SM BR FEW008 SCT035 20/20 A3004 RMK AO2 T02000200
KCNK 180655Z AUTO 06003KT 7SM OVC008 21/21 A3005 RMK AO2 SLP163 T02060206
KCNK 180631Z AUTO 07004KT 7SM BKN009 21/21 A3006 RMK AO2 T02060206
KCNK 180622Z AUTO 08004KT 8SM SCT009 21/21 A3006 RMK AO2 T02060206
KCNK 180555Z AUTO 09003KT 8SM CLR 21/21 A3006 RMK AO2 SLP165 T02060206 10256 20206 402780206 50006
KCNK 180455Z AUTO 09005KT 10SM CLR 21/21 A3007 RMK AO2 SLP168 T02060206
KCNK 180355Z AUTO 10007KT 10SM CLR 21/21 A3006 RMK AO2 SLP166 T02110206
KCNK 180255Z AUTO 10005KT 10SM CLR 22/21 A3004 RMK AO2 SLP160 T02220211 53001
KCNK 180155Z AUTO 10006KT 10SM CLR 23/22 A3003 RMK AO2 SLP158 T02330217
KCNK 180055Z AUTO 10006KT 10SM CLR 25/22 A3003 RMK AO2 SLP154 T02500217
KCNK 172355Z AUTO 09007KT 10SM SCT019 25/22 A3004 RMK AO2 SLP158 60018 T02500217 10278 20228 56011
KCNK 172255Z AUTO 09009KT 10SM SCT018 SCT026 26/22 A3004 RMK AO2 SLP159 T02610222
KCNK 172155Z AUTO 07009KT 10SM BKN080 26/23 A3006 RMK AO2 RAE25 SLP164 P0001 T02560233
KCNK 172055Z AUTO 05008KT 4SM -RA BR FEW021 BKN060 OVC070 23/23 A3007 RMK AO2 SLP170 P0016 60017 T02330228 51004
KCNK 172053Z AUTO 05008KT 4SM -RA BR FEW019 BKN060 OVC070 23/22 A3007 RMK AO2 P0016
KCNK 172031Z AUTO 02009KT 2 1/2SM RA BR SCT019 BKN045 OVC055 23/22 A3008 RMK AO2 P0008 T02280222
KCNK 171955Z AUTO 03005KT 6SM -RA BKN027 OVC085 26/22 A3007 RMK AO2 RAB38 SLP167 P0001 T02560222
KCNK 171855Z AUTO 06004KT 10SM SCT024 BKN030 OVC060 27/22 A3006 RMK AO2 SLP164 T02670217
KCNK 171851Z AUTO 06006KT 10SM SCT024 BKN030 OVC060 27/22 A3006 RMK AO2
KCNK 171755Z AUTO VRB03KT 10SM OVC020 27/22 A3005 RMK AO2 SLP161 60012 T02670222 10272 20211 51002 $
KCNK 171729Z AUTO 34005KT 10SM BKN020 26/22 A3005 RMK AO2 T02610222
KCNK 171655Z AUTO VRB04KT 10SM BKN100 26/22 A3005 RMK AO2 SLP161 T02560222
KCNK 171555Z AUTO 00000KT 10SM OVC100 23/22 A3006 RMK AO2 SLP166 T02330217